Share

Reform, AL (35481)

Bethany (KALBUHL2) Elev 367 ft | 33.32 °N, 87.74 °W | Change Station

Current weather conditions updated 3 minutes ago

Clear
Clear
64.6 °F
Feels Like 64.6 °F
N
0.0
Wind Variable Wind from North
Gusts 0.0 mph
Sunrise 6:14 AM
Sunset 7:27 PM
Moon Waning Gibbous

Today is forecast to be Cooler than yesterday.

Pressure 30.16 in
Visibility 7.0 miles
Clouds Clear
Dew Point 57 °F
Humidity 77%
Rainfall 0.00 in
Snow Depth Not available.
UV 1 out of 16
Pollen 8.40 out of 12
Air Quality Not available.
Flu Activity Sporadic
METAR KTCL 211253Z 00000KT 7SM CLR 14/12 A3017 RMK AO2 SLP213 T01440122

More Conditions Fewer Conditions

Pressure 30.16 in
Visibility 7.0 miles
Clouds Clear
Dew Point 57 °F
Humidity 77%
Rainfall 0.00 in
Snow Depth Not available.
UV 1 out of 16
Pollen 8.40 out of 12
Air Quality Not available.
Flu Activity Sporadic
METAR KTCL 211253Z 00000KT 7SM CLR 14/12 A3017 RMK AO2 SLP213 T01440122

More Conditions Fewer Conditions

10-Day Weather Forecast

Almanac

Astronomy

Apr. 21, 2014 Rise Set
Actual Time 6:14 AM CDT 7:27 PM CDT
Civil Twilight 5:48 AM CDT 7:53 PM CDT
Nautical Twilight 5:18 AM CDT 8:24 PM CDT
Astronomical Twilight 4:46 AM CDT 8:56 PM CDT
Moon 12:52 AM CDT 11:44 AM CDT
Length of Visible Light 14h 04m
Length of Day
13h 12m
Tomorrow will be 1m 53s longer.
Waning Gibbous, 59% of the Moon is Illuminated
Today
Waning Gibbous
Apr 22
Last Quarter
Apr 29
New
May 6
First Quarter
May 14
Full

Today's Extremes

State Highs State Lows

Community

  • Snowy Robin
    Snowy Robin
  • Sun Pillar and Geese
    Sun Pillar and Geese
  • Showers on the Way
    Showers on the Way
  • Easter Morning Fog
    Easter Morning Fog
  • Easter Dance
    Easter Dance

WunderPhotos

Upload Photos

1,703,621 photos uploaded!

Nearby

Snow Depth

Station Depth Elevation
No new snow has been reported.

Coastal Water Temperatures

Place Temperature
No Stations Reporting

Earthquake Activity

City Distance Mag. Time & Date
No recent earthquake activity has been reported nearby.
Minimum magnitude displayed is 2.5.

Nearby Weather Stations

Station Location Temp. Dew Point Humidity Wind Precip. Elev Updated Type
Bethany, Buhl, AL 64.6 °F 57 °F 77% North  at  0.0 mph 0.00 in / hr 367 ft 8:42 AM CDT Normal
Romulus Rd., Coker, AL 59.3 °F 56 °F 89% South  at  0.0 mph - / hr 225 ft 8:31 AM CDT Normal
Grandview Drive II, Northport, AL 62.8 °F 57 °F 82% South  at  1.0 mph 0.00 in / hr 331 ft 8:45 AM CDT Normal
Grandview Drive I, Northport, AL 58.8 °F 59 °F 100% North  at  0.0 mph 0.00 in / hr 328 ft 8:45 AM CDT Normal
Highland Park, Northport, AL 65.3 °F 60 °F 84% South  at  0.0 mph - / hr 282 ft 8:30 AM CDT Normal
Shiloh, Steens, MS 64.8 °F 57 °F 76% SSE  at  3.7 mph - / hr 276 ft 8:34 AM CDT Normal

Show More Stations Show Fewer Stations

What do you think?

We're not finished. Please let us know what you like, what you don't like, and what you are still missing.